sensor_id;sensor_type;location;lat;lon;timestamp;temperature;humidity
5419;DHT22;2732;52.092;11.556;2023-03-25T00:01:35;8.10;99.90
5419;DHT22;2732;52.092;11.556;2023-03-25T00:06:36;8.10;99.90
5419;DHT22;2732;52.092;11.556;2023-03-25T00:11:38;8.10;99.90
5419;DHT22;2732;52.092;11.556;2023-03-25T00:16:38;8.00;99.90
5419;DHT22;2732;52.092;11.556;2023-03-25T00:21:39;8.00;99.90
5419;DHT22;2732;52.092;11.556;2023-03-25T00:26:40;8.00;99.90
5419;DHT22;2732;52.092;11.556;2023-03-25T00:31:42;8.00;99.90
5419;DHT22;2732;52.092;11.556;2023-03-25T00:36:43;7.90;99.90
5419;DHT22;2732;52.092;11.556;2023-03-25T00:41:44;7.90;99.90
5419;DHT22;2732;52.092;11.556;2023-03-25T00:46:45;8.00;99.90
5419;DHT22;2732;52.092;11.556;2023-03-25T00:51:46;8.00;99.90
5419;DHT22;2732;52.092;11.556;2023-03-25T00:56:47;8.00;99.90
5419;DHT22;2732;52.092;11.556;2023-03-25T01:01:49;8.00;99.90
5419;DHT22;2732;52.092;11.556;2023-03-25T01:06:52;8.00;99.90
5419;DHT22;2732;52.092;11.556;2023-03-25T01:11:52;8.00;99.90
5419;DHT22;2732;52.092;11.556;2023-03-25T01:16:53;8.00;99.90
5419;DHT22;2732;52.092;11.556;2023-03-25T01:21:54;8.00;99.90
5419;DHT22;2732;52.092;11.556;2023-03-25T01:26:55;8.10;99.90
5419;DHT22;2732;52.092;11.556;2023-03-25T01:31:55;8.10;99.90
5419;DHT22;2732;52.092;11.556;2023-03-25T01:36:56;8.10;99.90
5419;DHT22;2732;52.092;11.556;2023-03-25T01:41:57;8.10;99.90
5419;DHT22;2732;52.092;11.556;2023-03-25T01:46:59;8.10;99.90
5419;DHT22;2732;52.092;11.556;2023-03-25T01:52:06;8.20;99.90
5419;DHT22;2732;52.092;11.556;2023-03-25T01:57:14;8.20;99.90
5419;DHT22;2732;52.092;11.556;2023-03-25T02:02:19;8.20;99.90
5419;DHT22;2732;52.092;11.556;2023-03-25T02:07:20;8.20;99.90
5419;DHT22;2732;52.092;11.556;2023-03-25T02:12:20;8.20;99.90
5419;DHT22;2732;52.092;11.556;2023-03-25T02:45:10;8.10;99.90
5419;DHT22;2732;52.092;11.556;2023-03-25T02:50:36;8.10;99.90
5419;DHT22;2732;52.092;11.556;2023-03-25T02:55:41;8.00;99.90
5419;DHT22;2732;52.092;11.556;2023-03-25T03:00:43;8.00;99.90
5419;DHT22;2732;52.092;11.556;2023-03-25T03:05:45;8.00;99.90
5419;DHT22;2732;52.092;11.556;2023-03-25T03:16:24;8.00;99.90
5419;DHT22;2732;52.092;11.556;2023-03-25T03:22:07;8.00;99.90
5419;DHT22;2732;52.092;11.556;2023-03-25T03:27:35;8.00;99.90
5419;DHT22;2732;52.092;11.556;2023-03-25T03:32:49;8.00;99.90
5419;DHT22;2732;52.092;11.556;2023-03-25T03:37:58;8.00;99.90
5419;DHT22;2732;52.092;11.556;2023-03-25T03:43:07;8.00;99.90
5419;DHT22;2732;52.092;11.556;2023-03-25T03:48:27;8.10;99.90
5419;DHT22;2732;52.092;11.556;2023-03-25T03:53:41;8.10;99.90
5419;DHT22;2732;52.092;11.556;2023-03-25T03:58:45;8.10;99.90
5419;DHT22;2732;52.092;11.556;2023-03-25T04:03:49;8.10;99.90
5419;DHT22;2732;52.092;11.556;2023-03-25T04:08:56;8.10;99.90
5419;DHT22;2732;52.092;11.556;2023-03-25T04:14:01;8.10;99.90
5419;DHT22;2732;52.092;11.556;2023-03-25T04:19:03;8.10;99.90
5419;DHT22;2732;52.092;11.556;2023-03-25T04:24:05;8.20;99.90
5419;DHT22;2732;52.092;11.556;2023-03-25T04:29:07;8.20;99.90
5419;DHT22;2732;52.092;11.556;2023-03-25T04:34:09;8.20;99.90
5419;DHT22;2732;52.092;11.556;2023-03-25T04:39:10;8.20;99.90
5419;DHT22;2732;52.092;11.556;2023-03-25T04:44:17;8.20;99.90
5419;DHT22;2732;52.092;11.556;2023-03-25T04:49:19;8.20;99.90
5419;DHT22;2732;52.092;11.556;2023-03-25T04:54:21;8.20;99.90
5419;DHT22;2732;52.092;11.556;2023-03-25T04:59:22;8.20;99.90
5419;DHT22;2732;52.092;11.556;2023-03-25T05:04:23;8.20;99.90
5419;DHT22;2732;52.092;11.556;2023-03-25T05:09:24;8.20;99.90
5419;DHT22;2732;52.092;11.556;2023-03-25T05:14:24;8.20;99.90
5419;DHT22;2732;52.092;11.556;2023-03-25T05:19:25;8.20;99.90
5419;DHT22;2732;52.092;11.556;2023-03-25T05:24:28;8.20;99.90
5419;DHT22;2732;52.092;11.556;2023-03-25T05:29:28;8.20;99.90
5419;DHT22;2732;52.092;11.556;2023-03-25T05:34:33;8.20;99.90
5419;DHT22;2732;52.092;11.556;2023-03-25T05:39:33;8.20;99.90
5419;DHT22;2732;52.092;11.556;2023-03-25T05:44:34;8.20;99.90
5419;DHT22;2732;52.092;11.556;2023-03-25T05:49:34;8.20;99.90
5419;DHT22;2732;52.092;11.556;2023-03-25T05:54:35;8.20;99.90
5419;DHT22;2732;52.092;11.556;2023-03-25T05:59:41;8.30;99.90
5419;DHT22;2732;52.092;11.556;2023-03-25T06:04:42;8.30;99.90
5419;DHT22;2732;52.092;11.556;2023-03-25T06:09:43;8.40;99.90
5419;DHT22;2732;52.092;11.556;2023-03-25T06:14:46;8.50;99.90
5419;DHT22;2732;52.092;11.556;2023-03-25T06:19:48;8.60;99.90
5419;DHT22;2732;52.092;11.556;2023-03-25T06:24:50;8.60;99.90
5419;DHT22;2732;52.092;11.556;2023-03-25T06:29:51;8.70;99.90
5419;DHT22;2732;52.092;11.556;2023-03-25T06:34:52;8.80;99.90
5419;DHT22;2732;52.092;11.556;2023-03-25T06:39:52;8.80;99.90
5419;DHT22;2732;52.092;11.556;2023-03-25T06:44:57;8.80;99.90
5419;DHT22;2732;52.092;11.556;2023-03-25T06:49:59;8.80;99.90
5419;DHT22;2732;52.092;11.556;2023-03-25T06:54:59;8.80;99.90
5419;DHT22;2732;52.092;11.556;2023-03-25T07:00:00;8.90;99.90
5419;DHT22;2732;52.092;11.556;2023-03-25T07:05:00;9.00;99.90
5419;DHT22;2732;52.092;11.556;2023-03-25T07:10:01;9.10;99.90
5419;DHT22;2732;52.092;11.556;2023-03-25T07:15:02;9.20;99.90
5419;DHT22;2732;52.092;11.556;2023-03-25T07:20:06;9.30;99.90
5419;DHT22;2732;52.092;11.556;2023-03-25T07:25:07;9.30;99.90
5419;DHT22;2732;52.092;11.556;2023-03-25T07:30:09;9.30;99.90
5419;DHT22;2732;52.092;11.556;2023-03-25T07:35:10;9.30;99.90
5419;DHT22;2732;52.092;11.556;2023-03-25T07:40:11;9.30;99.90
5419;DHT22;2732;52.092;11.556;2023-03-25T07:45:11;9.50;99.90
5419;DHT22;2732;52.092;11.556;2023-03-25T07:50:12;9.60;99.90
5419;DHT22;2732;52.092;11.556;2023-03-25T07:55:13;9.70;99.90
5419;DHT22;2732;52.092;11.556;2023-03-25T08:00:17;9.70;99.90
5419;DHT22;2732;52.092;11.556;2023-03-25T08:05:18;9.70;99.90
5419;DHT22;2732;52.092;11.556;2023-03-25T08:10:21;9.80;99.90
5419;DHT22;2732;52.092;11.556;2023-03-25T08:15:22;10.00;99.90
5419;DHT22;2732;52.092;11.556;2023-03-25T08:20:24;10.30;99.90
5419;DHT22;2732;52.092;11.556;2023-03-25T08:25:25;10.60;99.90
5419;DHT22;2732;52.092;11.556;2023-03-25T08:30:27;10.80;99.90
5419;DHT22;2732;52.092;11.556;2023-03-25T08:35:27;11.10;99.90
5419;DHT22;2732;52.092;11.556;2023-03-25T08:40:28;11.10;99.90
5419;DHT22;2732;52.092;11.556;2023-03-25T08:45:29;11.20;99.90
5419;DHT22;2732;52.092;11.556;2023-03-25T08:50:32;11.30;99.90
5419;DHT22;2732;52.092;11.556;2023-03-25T08:55:32;11.40;99.90
5419;DHT22;2732;52.092;11.556;2023-03-25T09:00:34;11.50;99.90
5419;DHT22;2732;52.092;11.556;2023-03-25T09:05:37;11.50;99.90
5419;DHT22;2732;52.092;11.556;2023-03-25T09:10:39;11.70;99.90
5419;DHT22;2732;52.092;11.556;2023-03-25T09:15:40;12.00;99.90
5419;DHT22;2732;52.092;11.556;2023-03-25T09:20:40;12.20;99.90
5419;DHT22;2732;52.092;11.556;2023-03-25T09:25:41;12.30;99.90
5419;DHT22;2732;52.092;11.556;2023-03-25T09:30:42;12.40;99.90
5419;DHT22;2732;52.092;11.556;2023-03-25T09:35:42;12.60;99.90
5419;DHT22;2732;52.092;11.556;2023-03-25T09:40:44;13.00;99.90
5419;DHT22;2732;52.092;11.556;2023-03-25T09:45:46;13.70;99.90
5419;DHT22;2732;52.092;11.556;2023-03-25T09:50:48;13.90;99.90
5419;DHT22;2732;52.092;11.556;2023-03-25T09:55:49;13.90;99.90
5419;DHT22;2732;52.092;11.556;2023-03-25T10:00:55;13.90;99.90
5419;DHT22;2732;52.092;11.556;2023-03-25T10:06:17;14.00;99.90
5419;DHT22;2732;52.092;11.556;2023-03-25T10:11:44;13.90;99.90
5419;DHT22;2732;52.092;11.556;2023-03-25T10:17:12;13.80;99.90
5419;DHT22;2732;52.092;11.556;2023-03-25T10:22:31;13.50;99.90
5419;DHT22;2732;52.092;11.556;2023-03-25T10:27:39;13.20;99.90
5419;DHT22;2732;52.092;11.556;2023-03-25T10:32:54;13.10;99.90
5419;DHT22;2732;52.092;11.556;2023-03-25T10:43:26;13.90;99.90
5419;DHT22;2732;52.092;11.556;2023-03-25T10:48:30;14.50;99.90
5419;DHT22;2732;52.092;11.556;2023-03-25T10:53:32;15.00;99.90
5419;DHT22;2732;52.092;11.556;2023-03-25T10:58:34;15.00;99.90
5419;DHT22;2732;52.092;11.556;2023-03-25T11:03:38;14.60;99.90
5419;DHT22;2732;52.092;11.556;2023-03-25T11:09:00;14.40;99.90
5419;DHT22;2732;52.092;11.556;2023-03-25T11:14:15;14.10;99.90
5419;DHT22;2732;52.092;11.556;2023-03-25T11:19:30;13.70;99.90
5419;DHT22;2732;52.092;11.556;2023-03-25T11:24:41;13.80;99.90
5419;DHT22;2732;52.092;11.556;2023-03-25T11:29:52;14.30;99.90
5419;DHT22;2732;52.092;11.556;2023-03-25T11:34:54;14.50;99.90
5419;DHT22;2732;52.092;11.556;2023-03-25T11:40:04;14.20;99.90
5419;DHT22;2732;52.092;11.556;2023-03-25T11:45:22;13.70;99.90
5419;DHT22;2732;52.092;11.556;2023-03-25T11:50:26;13.30;99.90
5419;DHT22;2732;52.092;11.556;2023-03-25T11:55:42;12.90;99.90
5419;DHT22;2732;52.092;11.556;2023-03-25T12:00:50;12.80;99.90
5419;DHT22;2732;52.092;11.556;2023-03-25T12:11:38;14.50;99.90
5419;DHT22;2732;52.092;11.556;2023-03-25T12:17:17;15.20;99.90
5419;DHT22;2732;52.092;11.556;2023-03-25T12:22:54;15.40;99.90
5419;DHT22;2732;52.092;11.556;2023-03-25T12:39:33;15.70;99.90
5419;DHT22;2732;52.092;11.556;2023-03-25T12:45:13;15.60;99.90
5419;DHT22;2732;52.092;11.556;2023-03-25T12:56:45;15.00;99.90
5419;DHT22;2732;52.092;11.556;2023-03-25T13:02:32;15.30;99.90
5419;DHT22;2732;52.092;11.556;2023-03-25T13:08:11;15.00;99.90
5419;DHT22;2732;52.092;11.556;2023-03-25T13:13:19;15.60;99.90
5419;DHT22;2732;52.092;11.556;2023-03-25T13:18:32;16.40;99.90
5419;DHT22;2732;52.092;11.556;2023-03-25T13:23:38;16.60;99.90
5419;DHT22;2732;52.092;11.556;2023-03-25T13:28:50;16.10;99.90
5419;DHT22;2732;52.092;11.556;2023-03-25T13:34:19;15.80;99.90
5419;DHT22;2732;52.092;11.556;2023-03-25T13:45:17;15.20;99.90
5419;DHT22;2732;52.092;11.556;2023-03-25T13:50:27;15.80;99.90
5419;DHT22;2732;52.092;11.556;2023-03-25T13:55:36;16.40;99.90
5419;DHT22;2732;52.092;11.556;2023-03-25T14:06:50;16.20;99.90
5419;DHT22;2732;52.092;11.556;2023-03-25T14:12:06;15.90;99.90
5419;DHT22;2732;52.092;11.556;2023-03-25T14:17:11;15.70;99.90
5419;DHT22;2732;52.092;11.556;2023-03-25T14:22:20;15.50;99.90
5419;DHT22;2732;52.092;11.556;2023-03-25T14:27:25;15.50;99.90
5419;DHT22;2732;52.092;11.556;2023-03-25T14:32:39;15.40;99.90
5419;DHT22;2732;52.092;11.556;2023-03-25T14:37:41;15.20;99.90
5419;DHT22;2732;52.092;11.556;2023-03-25T14:42:57;15.20;99.90
5419;DHT22;2732;52.092;11.556;2023-03-25T14:48:05;15.10;99.90
5419;DHT22;2732;52.092;11.556;2023-03-25T14:59:36;14.90;99.90
5419;DHT22;2732;52.092;11.556;2023-03-25T15:04:39;14.60;99.90
5419;DHT22;2732;52.092;11.556;2023-03-25T15:09:49;14.40;99.90
5419;DHT22;2732;52.092;11.556;2023-03-25T15:15:06;14.30;99.90
5419;DHT22;2732;52.092;11.556;2023-03-25T15:25:24;14.00;99.90
5419;DHT22;2732;52.092;11.556;2023-03-25T15:31:22;13.80;99.90
5419;DHT22;2732;52.092;11.556;2023-03-25T15:59:07;13.10;99.90
5419;DHT22;2732;52.092;11.556;2023-03-25T16:04:37;13.10;99.90
5419;DHT22;2732;52.092;11.556;2023-03-25T16:09:45;13.20;99.90
5419;DHT22;2732;52.092;11.556;2023-03-25T16:14:47;13.10;99.90
5419;DHT22;2732;52.092;11.556;2023-03-25T16:19:53;13.00;99.90
5419;DHT22;2732;52.092;11.556;2023-03-25T16:24:57;12.90;99.90
5419;DHT22;2732;52.092;11.556;2023-03-25T16:30:00;12.80;99.90
5419;DHT22;2732;52.092;11.556;2023-03-25T16:35:02;12.70;99.90
5419;DHT22;2732;52.092;11.556;2023-03-25T16:40:05;12.60;99.90
5419;DHT22;2732;52.092;11.556;2023-03-25T16:45:06;12.50;99.90
5419;DHT22;2732;52.092;11.556;2023-03-25T16:50:15;12.40;99.90
5419;DHT22;2732;52.092;11.556;2023-03-25T16:55:29;12.30;99.90
5419;DHT22;2732;52.092;11.556;2023-03-25T17:00:38;12.20;99.90
5419;DHT22;2732;52.092;11.556;2023-03-25T17:06:07;12.10;99.90
5419;DHT22;2732;52.092;11.556;2023-03-25T17:11:27;12.00;99.90
5419;DHT22;2732;52.092;11.556;2023-03-25T17:16:31;11.90;99.90
5419;DHT22;2732;52.092;11.556;2023-03-25T17:21:33;11.80;99.90
5419;DHT22;2732;52.092;11.556;2023-03-25T17:27:15;11.70;99.90
5419;DHT22;2732;52.092;11.556;2023-03-25T17:32:20;11.60;99.90
5419;DHT22;2732;52.092;11.556;2023-03-25T17:37:22;11.50;99.90
5419;DHT22;2732;52.092;11.556;2023-03-25T17:42:25;11.40;99.90
5419;DHT22;2732;52.092;11.556;2023-03-25T17:47:26;11.30;99.90
5419;DHT22;2732;52.092;11.556;2023-03-25T17:52:26;11.20;99.90
5419;DHT22;2732;52.092;11.556;2023-03-25T17:57:27;11.10;99.90
5419;DHT22;2732;52.092;11.556;2023-03-25T18:02:27;11.00;99.90
5419;DHT22;2732;52.092;11.556;2023-03-25T18:07:28;11.00;99.90
5419;DHT22;2732;52.092;11.556;2023-03-25T18:12:29;10.80;99.90
5419;DHT22;2732;52.092;11.556;2023-03-25T18:17:29;10.60;99.90
5419;DHT22;2732;52.092;11.556;2023-03-25T18:22:30;10.50;99.90
5419;DHT22;2732;52.092;11.556;2023-03-25T18:27:30;10.30;99.90
5419;DHT22;2732;52.092;11.556;2023-03-25T18:32:32;10.20;99.90
5419;DHT22;2732;52.092;11.556;2023-03-25T18:37:34;10.10;99.90
5419;DHT22;2732;52.092;11.556;2023-03-25T18:42:35;10.00;99.90
5419;DHT22;2732;52.092;11.556;2023-03-25T18:47:35;9.90;99.90
5419;DHT22;2732;52.092;11.556;2023-03-25T18:52:38;9.80;99.90
5419;DHT22;2732;52.092;11.556;2023-03-25T18:57:38;9.70;99.90
5419;DHT22;2732;52.092;11.556;2023-03-25T19:02:39;9.70;99.90
5419;DHT22;2732;52.092;11.556;2023-03-25T19:07:40;9.60;99.90
5419;DHT22;2732;52.092;11.556;2023-03-25T19:12:40;9.50;99.90
5419;DHT22;2732;52.092;11.556;2023-03-25T19:17:45;9.50;99.90
5419;DHT22;2732;52.092;11.556;2023-03-25T19:22:46;9.40;99.90
5419;DHT22;2732;52.092;11.556;2023-03-25T19:27:47;9.40;99.90
5419;DHT22;2732;52.092;11.556;2023-03-25T19:32:49;9.30;99.90
5419;DHT22;2732;52.092;11.556;2023-03-25T19:37:53;9.30;99.90
5419;DHT22;2732;52.092;11.556;2023-03-25T19:42:57;9.20;99.90
5419;DHT22;2732;52.092;11.556;2023-03-25T19:47:59;9.20;99.90
5419;DHT22;2732;52.092;11.556;2023-03-25T19:53:01;9.20;99.90
5419;DHT22;2732;52.092;11.556;2023-03-25T19:58:05;9.10;99.90
5419;DHT22;2732;52.092;11.556;2023-03-25T20:03:06;9.10;99.90
5419;DHT22;2732;52.092;11.556;2023-03-25T20:08:07;9.10;99.90
5419;DHT22;2732;52.092;11.556;2023-03-25T20:13:08;9.10;99.90
5419;DHT22;2732;52.092;11.556;2023-03-25T20:18:09;9.00;99.90
5419;DHT22;2732;52.092;11.556;2023-03-25T20:23:10;9.00;99.90
5419;DHT22;2732;52.092;11.556;2023-03-25T20:28:10;8.90;99.90
5419;DHT22;2732;52.092;11.556;2023-03-25T20:33:11;8.90;99.90
5419;DHT22;2732;52.092;11.556;2023-03-25T20:38:12;8.90;99.90
5419;DHT22;2732;52.092;11.556;2023-03-25T20:43:13;8.80;99.90
5419;DHT22;2732;52.092;11.556;2023-03-25T20:48:14;8.70;99.90
5419;DHT22;2732;52.092;11.556;2023-03-25T20:53:14;8.70;99.90
5419;DHT22;2732;52.092;11.556;2023-03-25T20:58:15;8.70;99.90
5419;DHT22;2732;52.092;11.556;2023-03-25T21:03:16;8.70;99.90
5419;DHT22;2732;52.092;11.556;2023-03-25T21:08:18;8.60;99.90
5419;DHT22;2732;52.092;11.556;2023-03-25T21:13:19;8.60;99.90
5419;DHT22;2732;52.092;11.556;2023-03-25T21:18:20;8.60;99.90
5419;DHT22;2732;52.092;11.556;2023-03-25T21:23:22;8.60;99.90
5419;DHT22;2732;52.092;11.556;2023-03-25T21:28:29;8.50;99.90
5419;DHT22;2732;52.092;11.556;2023-03-25T21:33:32;8.40;99.90
5419;DHT22;2732;52.092;11.556;2023-03-25T21:38:38;8.40;99.90
5419;DHT22;2732;52.092;11.556;2023-03-25T21:43:39;8.30;99.90
5419;DHT22;2732;52.092;11.556;2023-03-25T21:48:41;8.30;99.90
5419;DHT22;2732;52.092;11.556;2023-03-25T21:53:44;8.20;99.90
5419;DHT22;2732;52.092;11.556;2023-03-25T21:58:46;8.20;99.90
5419;DHT22;2732;52.092;11.556;2023-03-25T22:03:48;8.20;99.90
5419;DHT22;2732;52.092;11.556;2023-03-25T22:08:53;8.20;99.90
5419;DHT22;2732;52.092;11.556;2023-03-25T22:13:57;8.10;99.90
5419;DHT22;2732;52.092;11.556;2023-03-25T22:18:58;8.10;99.90
5419;DHT22;2732;52.092;11.556;2023-03-25T22:24:00;8.10;99.90
5419;DHT22;2732;52.092;11.556;2023-03-25T22:29:03;8.20;99.90
5419;DHT22;2732;52.092;11.556;2023-03-25T22:34:07;8.20;99.90
5419;DHT22;2732;52.092;11.556;2023-03-25T22:39:15;8.20;99.90
5419;DHT22;2732;52.092;11.556;2023-03-25T22:44:18;8.20;99.90
5419;DHT22;2732;52.092;11.556;2023-03-25T22:49:19;8.20;99.90
5419;DHT22;2732;52.092;11.556;2023-03-25T22:54:21;8.10;99.90
5419;DHT22;2732;52.092;11.556;2023-03-25T22:59:22;8.10;99.90
5419;DHT22;2732;52.092;11.556;2023-03-25T23:04:22;8.10;99.90
5419;DHT22;2732;52.092;11.556;2023-03-25T23:09:23;8.10;99.90
5419;DHT22;2732;52.092;11.556;2023-03-25T23:14:47;8.00;99.90
5419;DHT22;2732;52.092;11.556;2023-03-25T23:19:50;8.00;99.90
5419;DHT22;2732;52.092;11.556;2023-03-25T23:24:51;8.00;99.90
5419;DHT22;2732;52.092;11.556;2023-03-25T23:29:52;8.00;99.90
5419;DHT22;2732;52.092;11.556;2023-03-25T23:34:53;8.00;99.90
5419;DHT22;2732;52.092;11.556;2023-03-25T23:39:57;8.00;99.90
5419;DHT22;2732;52.092;11.556;2023-03-25T23:44:59;8.00;99.90
5419;DHT22;2732;52.092;11.556;2023-03-25T23:50:00;8.00;99.90
5419;DHT22;2732;52.092;11.556;2023-03-25T23:55:01;7.90;99.90
